sensor_id;sensor_type;location;lat;lon;timestamp;P1;durP1;ratioP1;P2;durP2;ratioP2
21806;SDS011;11065;50.786;7.840;2022-11-15T00:00:39;5.80;;;4.13;;
21806;SDS011;11065;50.786;7.840;2022-11-15T00:03:25;7.27;;;4.77;;
21806;SDS011;11065;50.786;7.840;2022-11-15T00:06:12;8.40;;;5.17;;
21806;SDS011;11065;50.786;7.840;2022-11-15T00:08:58;8.43;;;6.67;;
21806;SDS011;11065;50.786;7.840;2022-11-15T00:11:44;9.47;;;7.57;;
21806;SDS011;11065;50.786;7.840;2022-11-15T00:14:30;10.07;;;7.23;;
21806;SDS011;11065;50.786;7.840;2022-11-15T00:17:15;9.20;;;6.67;;
21806;SDS011;11065;50.786;7.840;2022-11-15T00:20:00;10.77;;;6.37;;
21806;SDS011;11065;50.786;7.840;2022-11-15T00:22:46;7.80;;;5.90;;
21806;SDS011;11065;50.786;7.840;2022-11-15T00:25:32;8.83;;;5.93;;
21806;SDS011;11065;50.786;7.840;2022-11-15T00:28:17;7.40;;;4.93;;
21806;SDS011;11065;50.786;7.840;2022-11-15T00:31:03;7.43;;;5.27;;
21806;SDS011;11065;50.786;7.840;2022-11-15T00:33:51;7.60;;;4.80;;
21806;SDS011;11065;50.786;7.840;2022-11-15T00:36:36;6.23;;;4.20;;
21806;SDS011;11065;50.786;7.840;2022-11-15T00:39:22;6.90;;;4.03;;
21806;SDS011;11065;50.786;7.840;2022-11-15T00:42:07;6.13;;;4.60;;
21806;SDS011;11065;50.786;7.840;2022-11-15T00:44:52;5.57;;;3.70;;
21806;SDS011;11065;50.786;7.840;2022-11-15T00:47:38;6.90;;;3.83;;
21806;SDS011;11065;50.786;7.840;2022-11-15T00:50:23;6.03;;;4.07;;
21806;SDS011;11065;50.786;7.840;2022-11-15T00:53:09;4.60;;;3.23;;
21806;SDS011;11065;50.786;7.840;2022-11-15T00:55:54;5.47;;;3.43;;
21806;SDS011;11065;50.786;7.840;2022-11-15T00:58:40;5.57;;;4.10;;
21806;SDS011;11065;50.786;7.840;2022-11-15T01:01:25;4.73;;;3.20;;
21806;SDS011;11065;50.786;7.840;2022-11-15T01:04:10;6.13;;;3.97;;
21806;SDS011;11065;50.786;7.840;2022-11-15T01:06:56;5.83;;;3.87;;
21806;SDS011;11065;50.786;7.840;2022-11-15T01:09:41;5.60;;;3.43;;
21806;SDS011;11065;50.786;7.840;2022-11-15T01:12:27;5.60;;;3.47;;
21806;SDS011;11065;50.786;7.840;2022-11-15T01:15:12;5.87;;;3.60;;
21806;SDS011;11065;50.786;7.840;2022-11-15T01:17:57;6.00;;;3.80;;
21806;SDS011;11065;50.786;7.840;2022-11-15T01:20:43;7.63;;;4.63;;
21806;SDS011;11065;50.786;7.840;2022-11-15T01:23:28;8.40;;;5.30;;
21806;SDS011;11065;50.786;7.840;2022-11-15T01:26:14;8.57;;;5.60;;
21806;SDS011;11065;50.786;7.840;2022-11-15T01:29:01;10.60;;;6.40;;
21806;SDS011;11065;50.786;7.840;2022-11-15T01:31:46;11.20;;;6.87;;
21806;SDS011;11065;50.786;7.840;2022-11-15T01:34:32;11.17;;;6.20;;
21806;SDS011;11065;50.786;7.840;2022-11-15T01:37:17;11.67;;;6.87;;
21806;SDS011;11065;50.786;7.840;2022-11-15T01:40:03;13.07;;;7.33;;
21806;SDS011;11065;50.786;7.840;2022-11-15T01:42:50;12.43;;;7.40;;
21806;SDS011;11065;50.786;7.840;2022-11-15T01:45:35;9.93;;;6.23;;
21806;SDS011;11065;50.786;7.840;2022-11-15T01:48:22;10.47;;;6.60;;
21806;SDS011;11065;50.786;7.840;2022-11-15T01:51:11;8.73;;;5.20;;
21806;SDS011;11065;50.786;7.840;2022-11-15T01:53:59;6.43;;;4.50;;
21806;SDS011;11065;50.786;7.840;2022-11-15T01:56:53;6.20;;;3.73;;
21806;SDS011;11065;50.786;7.840;2022-11-15T01:59:51;5.23;;;3.77;;
21806;SDS011;11065;50.786;7.840;2022-11-15T02:02:37;6.47;;;4.00;;
21806;SDS011;11065;50.786;7.840;2022-11-15T02:05:24;6.77;;;4.20;;
21806;SDS011;11065;50.786;7.840;2022-11-15T02:08:10;5.33;;;3.50;;
21806;SDS011;11065;50.786;7.840;2022-11-15T02:11:08;4.83;;;3.50;;
21806;SDS011;11065;50.786;7.840;2022-11-15T02:13:54;5.60;;;3.57;;
21806;SDS011;11065;50.786;7.840;2022-11-15T02:26:27;5.40;;;3.43;;
21806;SDS011;11065;50.786;7.840;2022-11-15T02:29:32;7.10;;;3.90;;
21806;SDS011;11065;50.786;7.840;2022-11-15T02:33:01;5.70;;;3.63;;
21806;SDS011;11065;50.786;7.840;2022-11-15T02:36:01;4.80;;;3.33;;
21806;SDS011;11065;50.786;7.840;2022-11-15T02:39:15;6.07;;;4.23;;
21806;SDS011;11065;50.786;7.840;2022-11-15T02:42:19;5.47;;;3.70;;
21806;SDS011;11065;50.786;7.840;2022-11-15T02:45:33;5.50;;;3.93;;
21806;SDS011;11065;50.786;7.840;2022-11-15T02:48:23;5.83;;;4.10;;
21806;SDS011;11065;50.786;7.840;2022-11-15T02:51:10;5.70;;;3.80;;
21806;SDS011;11065;50.786;7.840;2022-11-15T02:53:57;4.90;;;3.47;;
21806;SDS011;11065;50.786;7.840;2022-11-15T02:56:43;6.40;;;4.17;;
21806;SDS011;11065;50.786;7.840;2022-11-15T03:05:47;5.87;;;3.77;;
21806;SDS011;11065;50.786;7.840;2022-11-15T03:11:55;6.00;;;3.77;;
21806;SDS011;11065;50.786;7.840;2022-11-15T03:17:51;5.63;;;3.57;;
21806;SDS011;11065;50.786;7.840;2022-11-15T03:20:48;5.20;;;3.50;;
21806;SDS011;11065;50.786;7.840;2022-11-15T03:23:37;5.80;;;3.83;;
21806;SDS011;11065;50.786;7.840;2022-11-15T03:26:24;5.43;;;3.60;;
21806;SDS011;11065;50.786;7.840;2022-11-15T03:29:12;4.57;;;3.47;;
21806;SDS011;11065;50.786;7.840;2022-11-15T03:32:03;5.30;;;3.30;;
21806;SDS011;11065;50.786;7.840;2022-11-15T03:35:17;4.27;;;2.97;;
21806;SDS011;11065;50.786;7.840;2022-11-15T03:41:00;4.40;;;3.03;;
21806;SDS011;11065;50.786;7.840;2022-11-15T03:43:52;4.70;;;3.33;;
21806;SDS011;11065;50.786;7.840;2022-11-15T03:50:07;3.93;;;3.00;;
21806;SDS011;11065;50.786;7.840;2022-11-15T03:52:56;4.37;;;3.33;;
21806;SDS011;11065;50.786;7.840;2022-11-15T03:55:42;4.73;;;3.13;;
21806;SDS011;11065;50.786;7.840;2022-11-15T03:58:28;5.13;;;3.40;;
21806;SDS011;11065;50.786;7.840;2022-11-15T04:01:13;4.60;;;3.00;;
21806;SDS011;11065;50.786;7.840;2022-11-15T04:03:59;4.10;;;3.00;;
21806;SDS011;11065;50.786;7.840;2022-11-15T04:06:44;5.50;;;3.50;;
21806;SDS011;11065;50.786;7.840;2022-11-15T04:09:30;4.27;;;3.10;;
21806;SDS011;11065;50.786;7.840;2022-11-15T04:12:15;5.43;;;3.00;;
21806;SDS011;11065;50.786;7.840;2022-11-15T04:15:16;5.07;;;3.03;;
21806;SDS011;11065;50.786;7.840;2022-11-15T04:18:03;5.37;;;3.50;;
21806;SDS011;11065;50.786;7.840;2022-11-15T04:20:48;4.57;;;3.10;;
21806;SDS011;11065;50.786;7.840;2022-11-15T04:23:52;5.50;;;3.30;;
21806;SDS011;11065;50.786;7.840;2022-11-15T04:26:38;4.30;;;2.97;;
21806;SDS011;11065;50.786;7.840;2022-11-15T04:29:23;6.13;;;3.23;;
21806;SDS011;11065;50.786;7.840;2022-11-15T04:32:20;4.37;;;3.00;;
21806;SDS011;11065;50.786;7.840;2022-11-15T04:35:06;4.90;;;3.50;;
21806;SDS011;11065;50.786;7.840;2022-11-15T04:37:51;4.83;;;3.30;;
21806;SDS011;11065;50.786;7.840;2022-11-15T04:40:37;6.07;;;3.20;;
21806;SDS011;11065;50.786;7.840;2022-11-15T04:43:22;4.20;;;2.80;;
21806;SDS011;11065;50.786;7.840;2022-11-15T04:46:08;3.97;;;2.80;;
21806;SDS011;11065;50.786;7.840;2022-11-15T04:48:53;4.13;;;2.90;;
21806;SDS011;11065;50.786;7.840;2022-11-15T04:51:43;3.73;;;2.73;;
21806;SDS011;11065;50.786;7.840;2022-11-15T04:54:28;3.90;;;2.97;;
21806;SDS011;11065;50.786;7.840;2022-11-15T04:57:14;4.30;;;2.27;;
21806;SDS011;11065;50.786;7.840;2022-11-15T04:59:59;4.17;;;2.40;;
21806;SDS011;11065;50.786;7.840;2022-11-15T05:02:45;5.13;;;2.87;;
21806;SDS011;11065;50.786;7.840;2022-11-15T05:06:09;3.90;;;2.67;;
21806;SDS011;11065;50.786;7.840;2022-11-15T05:08:54;4.07;;;3.13;;
21806;SDS011;11065;50.786;7.840;2022-11-15T05:11:40;3.50;;;2.80;;
21806;SDS011;11065;50.786;7.840;2022-11-15T05:14:26;4.40;;;2.90;;
21806;SDS011;11065;50.786;7.840;2022-11-15T05:17:11;4.30;;;3.07;;
21806;SDS011;11065;50.786;7.840;2022-11-15T05:19:57;4.70;;;3.20;;
21806;SDS011;11065;50.786;7.840;2022-11-15T05:22:42;5.07;;;3.53;;
21806;SDS011;11065;50.786;7.840;2022-11-15T05:25:28;7.37;;;4.57;;
21806;SDS011;11065;50.786;7.840;2022-11-15T05:28:13;9.07;;;6.17;;
21806;SDS011;11065;50.786;7.840;2022-11-15T05:31:02;8.53;;;5.60;;
21806;SDS011;11065;50.786;7.840;2022-11-15T05:33:48;4.70;;;3.63;;
21806;SDS011;11065;50.786;7.840;2022-11-15T05:36:37;6.47;;;3.73;;
21806;SDS011;11065;50.786;7.840;2022-11-15T05:39:25;5.63;;;3.80;;
21806;SDS011;11065;50.786;7.840;2022-11-15T05:42:14;4.47;;;2.93;;
21806;SDS011;11065;50.786;7.840;2022-11-15T05:45:01;5.70;;;3.30;;
21806;SDS011;11065;50.786;7.840;2022-11-15T05:47:50;5.43;;;3.03;;
21806;SDS011;11065;50.786;7.840;2022-11-15T05:50:37;3.87;;;2.47;;
21806;SDS011;11065;50.786;7.840;2022-11-15T05:53:26;4.27;;;2.83;;
21806;SDS011;11065;50.786;7.840;2022-11-15T05:56:12;4.10;;;2.77;;
21806;SDS011;11065;50.786;7.840;2022-11-15T05:58:58;4.57;;;2.70;;
21806;SDS011;11065;50.786;7.840;2022-11-15T06:01:44;4.20;;;2.73;;
21806;SDS011;11065;50.786;7.840;2022-11-15T06:04:29;4.37;;;2.93;;
21806;SDS011;11065;50.786;7.840;2022-11-15T06:07:14;5.90;;;2.93;;
21806;SDS011;11065;50.786;7.840;2022-11-15T06:10:00;3.73;;;2.33;;
21806;SDS011;11065;50.786;7.840;2022-11-15T06:12:45;3.47;;;2.07;;
21806;SDS011;11065;50.786;7.840;2022-11-15T06:15:32;4.53;;;3.13;;
21806;SDS011;11065;50.786;7.840;2022-11-15T06:18:18;3.03;;;2.03;;
21806;SDS011;11065;50.786;7.840;2022-11-15T06:21:04;4.03;;;2.10;;
21806;SDS011;11065;50.786;7.840;2022-11-15T06:23:50;5.40;;;3.63;;
21806;SDS011;11065;50.786;7.840;2022-11-15T06:26:35;5.50;;;3.20;;
21806;SDS011;11065;50.786;7.840;2022-11-15T06:29:21;4.67;;;3.00;;
21806;SDS011;11065;50.786;7.840;2022-11-15T06:32:06;3.73;;;2.50;;
21806;SDS011;11065;50.786;7.840;2022-11-15T06:34:51;4.13;;;2.77;;
21806;SDS011;11065;50.786;7.840;2022-11-15T06:37:37;5.17;;;2.60;;
21806;SDS011;11065;50.786;7.840;2022-11-15T06:40:22;3.20;;;1.77;;
21806;SDS011;11065;50.786;7.840;2022-11-15T06:43:08;3.37;;;2.33;;
21806;SDS011;11065;50.786;7.840;2022-11-15T06:45:53;3.20;;;2.00;;
21806;SDS011;11065;50.786;7.840;2022-11-15T06:48:39;3.63;;;2.30;;
21806;SDS011;11065;50.786;7.840;2022-11-15T06:51:24;4.63;;;2.80;;
21806;SDS011;11065;50.786;7.840;2022-11-15T06:54:10;3.57;;;2.47;;
21806;SDS011;11065;50.786;7.840;2022-11-15T06:56:55;5.03;;;3.53;;
21806;SDS011;11065;50.786;7.840;2022-11-15T06:59:41;4.73;;;3.20;;
21806;SDS011;11065;50.786;7.840;2022-11-15T07:02:26;4.37;;;2.40;;
21806;SDS011;11065;50.786;7.840;2022-11-15T07:05:12;3.53;;;2.70;;
21806;SDS011;11065;50.786;7.840;2022-11-15T07:07:58;2.97;;;2.23;;
21806;SDS011;11065;50.786;7.840;2022-11-15T07:10:43;3.63;;;2.30;;
21806;SDS011;11065;50.786;7.840;2022-11-15T07:13:30;3.50;;;2.17;;
21806;SDS011;11065;50.786;7.840;2022-11-15T07:16:19;3.50;;;2.13;;
21806;SDS011;11065;50.786;7.840;2022-11-15T07:19:05;2.77;;;2.00;;
21806;SDS011;11065;50.786;7.840;2022-11-15T07:21:50;3.17;;;2.00;;
21806;SDS011;11065;50.786;7.840;2022-11-15T07:24:36;3.00;;;2.10;;
21806;SDS011;11065;50.786;7.840;2022-11-15T07:27:22;3.43;;;1.90;;
21806;SDS011;11065;50.786;7.840;2022-11-15T07:30:08;4.17;;;2.30;;
21806;SDS011;11065;50.786;7.840;2022-11-15T07:32:54;2.90;;;1.97;;
21806;SDS011;11065;50.786;7.840;2022-11-15T07:35:41;3.40;;;2.10;;
21806;SDS011;11065;50.786;7.840;2022-11-15T07:38:27;3.20;;;2.10;;
21806;SDS011;11065;50.786;7.840;2022-11-15T07:41:13;4.80;;;1.93;;
21806;SDS011;11065;50.786;7.840;2022-11-15T07:43:58;3.30;;;2.10;;
21806;SDS011;11065;50.786;7.840;2022-11-15T07:46:44;3.70;;;1.97;;
21806;SDS011;11065;50.786;7.840;2022-11-15T07:49:30;3.90;;;2.50;;
21806;SDS011;11065;50.786;7.840;2022-11-15T07:52:15;3.10;;;2.30;;
21806;SDS011;11065;50.786;7.840;2022-11-15T07:55:01;3.70;;;2.57;;
21806;SDS011;11065;50.786;7.840;2022-11-15T07:57:46;3.20;;;2.33;;
21806;SDS011;11065;50.786;7.840;2022-11-15T08:00:32;4.13;;;2.57;;
21806;SDS011;11065;50.786;7.840;2022-11-15T08:03:18;3.57;;;2.23;;
21806;SDS011;11065;50.786;7.840;2022-11-15T08:06:03;3.37;;;2.33;;
21806;SDS011;11065;50.786;7.840;2022-11-15T08:08:49;3.87;;;2.33;;
21806;SDS011;11065;50.786;7.840;2022-11-15T08:11:34;4.27;;;2.80;;
21806;SDS011;11065;50.786;7.840;2022-11-15T08:14:20;3.87;;;2.43;;
21806;SDS011;11065;50.786;7.840;2022-11-15T08:17:06;4.23;;;3.10;;
21806;SDS011;11065;50.786;7.840;2022-11-15T08:19:51;4.50;;;2.77;;
21806;SDS011;11065;50.786;7.840;2022-11-15T08:22:37;3.77;;;2.60;;
21806;SDS011;11065;50.786;7.840;2022-11-15T08:25:23;3.17;;;2.23;;
21806;SDS011;11065;50.786;7.840;2022-11-15T08:28:10;4.07;;;2.27;;
21806;SDS011;11065;50.786;7.840;2022-11-15T08:30:56;5.87;;;2.50;;
21806;SDS011;11065;50.786;7.840;2022-11-15T08:33:42;3.83;;;2.00;;
21806;SDS011;11065;50.786;7.840;2022-11-15T08:36:28;3.37;;;1.87;;
21806;SDS011;11065;50.786;7.840;2022-11-15T08:39:25;2.97;;;2.00;;
21806;SDS011;11065;50.786;7.840;2022-11-15T08:42:11;3.43;;;2.07;;
21806;SDS011;11065;50.786;7.840;2022-11-15T08:45:04;2.60;;;1.80;;
21806;SDS011;11065;50.786;7.840;2022-11-15T08:47:49;2.90;;;2.10;;
21806;SDS011;11065;50.786;7.840;2022-11-15T08:50:38;4.90;;;1.97;;
21806;SDS011;11065;50.786;7.840;2022-11-15T08:53:24;3.07;;;1.93;;
21806;SDS011;11065;50.786;7.840;2022-11-15T08:56:10;3.10;;;2.07;;
21806;SDS011;11065;50.786;7.840;2022-11-15T08:58:57;3.03;;;1.80;;
21806;SDS011;11065;50.786;7.840;2022-11-15T09:01:42;4.13;;;2.00;;
21806;SDS011;11065;50.786;7.840;2022-11-15T09:04:28;3.50;;;2.00;;
21806;SDS011;11065;50.786;7.840;2022-11-15T09:07:13;3.73;;;1.80;;
21806;SDS011;11065;50.786;7.840;2022-11-15T09:09:59;3.20;;;1.80;;
21806;SDS011;11065;50.786;7.840;2022-11-15T09:12:44;1.97;;;1.60;;
21806;SDS011;11065;50.786;7.840;2022-11-15T09:15:32;3.50;;;1.63;;
21806;SDS011;11065;50.786;7.840;2022-11-15T09:18:18;4.17;;;1.70;;
21806;SDS011;11065;50.786;7.840;2022-11-15T09:21:06;2.53;;;1.63;;
21806;SDS011;11065;50.786;7.840;2022-11-15T09:23:52;2.40;;;1.60;;
21806;SDS011;11065;50.786;7.840;2022-11-15T09:26:38;2.43;;;1.43;;
21806;SDS011;11065;50.786;7.840;2022-11-15T09:29:24;3.70;;;1.90;;
21806;SDS011;11065;50.786;7.840;2022-11-15T09:32:27;2.13;;;1.60;;
21806;SDS011;11065;50.786;7.840;2022-11-15T09:35:21;2.00;;;1.60;;
21806;SDS011;11065;50.786;7.840;2022-11-15T09:38:07;2.63;;;1.47;;
21806;SDS011;11065;50.786;7.840;2022-11-15T09:40:57;2.40;;;1.60;;
21806;SDS011;11065;50.786;7.840;2022-11-15T09:44:06;3.17;;;2.07;;
21806;SDS011;11065;50.786;7.840;2022-11-15T09:50:50;4.10;;;2.13;;
21806;SDS011;11065;50.786;7.840;2022-11-15T09:56:21;2.30;;;1.57;;
21806;SDS011;11065;50.786;7.840;2022-11-15T09:58:59;2.30;;;1.50;;
21806;SDS011;11065;50.786;7.840;2022-11-15T10:04:36;2.60;;;1.37;;
21806;SDS011;11065;50.786;7.840;2022-11-15T10:07:06;2.80;;;1.63;;
21806;SDS011;11065;50.786;7.840;2022-11-15T10:09:45;5.80;;;2.03;;
21806;SDS011;11065;50.786;7.840;2022-11-15T10:12:17;2.80;;;1.57;;
21806;SDS011;11065;50.786;7.840;2022-11-15T10:14:45;3.67;;;1.90;;
21806;SDS011;11065;50.786;7.840;2022-11-15T10:17:23;1.90;;;1.53;;
21806;SDS011;11065;50.786;7.840;2022-11-15T10:20:13;4.40;;;2.27;;
21806;SDS011;11065;50.786;7.840;2022-11-15T10:27:44;2.57;;;1.67;;
21806;SDS011;11065;50.786;7.840;2022-11-15T10:30:17;2.50;;;1.43;;
21806;SDS011;11065;50.786;7.840;2022-11-15T10:32:45;2.37;;;1.60;;
21806;SDS011;11065;50.786;7.840;2022-11-15T10:35:22;2.37;;;1.70;;
21806;SDS011;11065;50.786;7.840;2022-11-15T10:38:06;2.80;;;1.27;;
21806;SDS011;11065;50.786;7.840;2022-11-15T10:40:35;2.63;;;1.40;;
21806;SDS011;11065;50.786;7.840;2022-11-15T10:43:18;2.90;;;1.83;;
21806;SDS011;11065;50.786;7.840;2022-11-15T10:45:45;2.47;;;1.50;;
21806;SDS011;11065;50.786;7.840;2022-11-15T10:55:52;3.55;;;1.50;;
21806;SDS011;11065;50.786;7.840;2022-11-15T10:58:38;2.60;;;1.70;;
21806;SDS011;11065;50.786;7.840;2022-11-15T11:01:18;2.80;;;1.60;;
21806;SDS011;11065;50.786;7.840;2022-11-15T11:04:03;2.60;;;1.73;;
21806;SDS011;11065;50.786;7.840;2022-11-15T11:09:21;5.15;;;1.95;;
21806;SDS011;11065;50.786;7.840;2022-11-15T11:11:55;2.00;;;1.38;;
21806;SDS011;11065;50.786;7.840;2022-11-15T11:14:29;2.42;;;1.70;;
21806;SDS011;11065;50.786;7.840;2022-11-15T11:28:17;1.60;;;1.25;;
21806;SDS011;11065;50.786;7.840;2022-11-15T11:33:41;2.05;;;1.33;;
21806;SDS011;11065;50.786;7.840;2022-11-15T11:44:52;4.38;;;1.38;;
21806;SDS011;11065;50.786;7.840;2022-11-15T11:47:30;2.47;;;1.38;;
21806;SDS011;11065;50.786;7.840;2022-11-15T11:50:05;2.80;;;1.30;;
21806;SDS011;11065;50.786;7.840;2022-11-15T11:52:43;2.57;;;1.50;;
21806;SDS011;11065;50.786;7.840;2022-11-15T11:55:49;2.87;;;1.50;;
21806;SDS011;11065;50.786;7.840;2022-11-15T11:58:21;2.87;;;1.30;;
21806;SDS011;11065;50.786;7.840;2022-11-15T12:01:02;3.73;;;1.73;;
21806;SDS011;11065;50.786;7.840;2022-11-15T12:03:46;1.90;;;1.30;;
21806;SDS011;11065;50.786;7.840;2022-11-15T12:06:35;2.83;;;1.20;;
21806;SDS011;11065;50.786;7.840;2022-11-15T12:09:55;2.83;;;1.50;;
21806;SDS011;11065;50.786;7.840;2022-11-15T12:12:18;2.43;;;1.30;;
21806;SDS011;11065;50.786;7.840;2022-11-15T12:14:53;1.90;;;1.20;;
21806;SDS011;11065;50.786;7.840;2022-11-15T12:17:24;2.53;;;1.13;;
21806;SDS011;11065;50.786;7.840;2022-11-15T12:19:56;2.13;;;1.30;;
21806;SDS011;11065;50.786;7.840;2022-11-15T12:25:17;2.83;;;1.23;;
21806;SDS011;11065;50.786;7.840;2022-11-15T12:28:07;2.30;;;1.37;;
21806;SDS011;11065;50.786;7.840;2022-11-15T12:33:36;2.43;;;1.20;;
21806;SDS011;11065;50.786;7.840;2022-11-15T12:36:51;3.10;;;1.20;;
21806;SDS011;11065;50.786;7.840;2022-11-15T12:39:01;2.00;;;1.10;;
21806;SDS011;11065;50.786;7.840;2022-11-15T12:41:36;1.93;;;0.90;;
21806;SDS011;11065;50.786;7.840;2022-11-15T12:44:04;3.03;;;1.53;;
21806;SDS011;11065;50.786;7.840;2022-11-15T12:57:22;2.00;;;0.90;;
21806;SDS011;11065;50.786;7.840;2022-11-15T13:02:24;1.30;;;0.80;;
21806;SDS011;11065;50.786;7.840;2022-11-15T13:10:30;2.00;;;0.97;;
21806;SDS011;11065;50.786;7.840;2022-11-15T13:13:00;1.83;;;1.00;;
21806;SDS011;11065;50.786;7.840;2022-11-15T13:15:39;2.40;;;1.10;;
21806;SDS011;11065;50.786;7.840;2022-11-15T13:18:32;2.80;;;1.20;;
21806;SDS011;11065;50.786;7.840;2022-11-15T13:21:02;1.23;;;0.80;;
21806;SDS011;11065;50.786;7.840;2022-11-15T13:23:51;2.77;;;1.10;;
21806;SDS011;11065;50.786;7.840;2022-11-15T13:26:19;2.57;;;1.03;;
21806;SDS011;11065;50.786;7.840;2022-11-15T13:28:50;1.73;;;1.07;;
21806;SDS011;11065;50.786;7.840;2022-11-15T13:34:15;3.20;;;1.17;;
21806;SDS011;11065;50.786;7.840;2022-11-15T13:37:12;1.17;;;0.80;;
21806;SDS011;11065;50.786;7.840;2022-11-15T13:39:57;1.63;;;0.80;;
21806;SDS011;11065;50.786;7.840;2022-11-15T13:42:42;3.93;;;1.30;;
21806;SDS011;11065;50.786;7.840;2022-11-15T13:45:13;1.93;;;1.00;;
21806;SDS011;11065;50.786;7.840;2022-11-15T13:47:42;3.03;;;1.10;;
21806;SDS011;11065;50.786;7.840;2022-11-15T13:50:12;1.90;;;1.13;;
21806;SDS011;11065;50.786;7.840;2022-11-15T13:52:40;1.77;;;1.00;;
21806;SDS011;11065;50.786;7.840;2022-11-15T13:55:13;2.10;;;0.97;;
21806;SDS011;11065;50.786;7.840;2022-11-15T13:57:50;1.80;;;1.10;;
21806;SDS011;11065;50.786;7.840;2022-11-15T14:02:56;2.03;;;1.33;;
21806;SDS011;11065;50.786;7.840;2022-11-15T14:05:31;3.53;;;1.20;;
21806;SDS011;11065;50.786;7.840;2022-11-15T14:08:02;2.20;;;1.53;;
21806;SDS011;11065;50.786;7.840;2022-11-15T14:10:39;2.10;;;1.17;;
21806;SDS011;11065;50.786;7.840;2022-11-15T14:13:10;2.20;;;1.30;;
21806;SDS011;11065;50.786;7.840;2022-11-15T14:16:15;1.73;;;1.10;;
21806;SDS011;11065;50.786;7.840;2022-11-15T14:18:48;2.00;;;1.30;;
21806;SDS011;11065;50.786;7.840;2022-11-15T14:21:17;1.70;;;1.03;;
21806;SDS011;11065;50.786;7.840;2022-11-15T14:23:45;3.10;;;1.37;;
21806;SDS011;11065;50.786;7.840;2022-11-15T14:26:34;2.40;;;1.40;;
21806;SDS011;11065;50.786;7.840;2022-11-15T14:31:50;2.90;;;1.43;;
21806;SDS011;11065;50.786;7.840;2022-11-15T14:34:17;4.77;;;1.70;;
21806;SDS011;11065;50.786;7.840;2022-11-15T14:36:44;3.30;;;1.20;;
21806;SDS011;11065;50.786;7.840;2022-11-15T14:39:10;2.13;;;1.30;;
21806;SDS011;11065;50.786;7.840;2022-11-15T14:41:37;2.30;;;1.17;;
21806;SDS011;11065;50.786;7.840;2022-11-15T14:44:04;1.73;;;0.90;;
21806;SDS011;11065;50.786;7.840;2022-11-15T14:46:31;2.10;;;1.10;;
21806;SDS011;11065;50.786;7.840;2022-11-15T14:48:58;3.20;;;1.00;;
21806;SDS011;11065;50.786;7.840;2022-11-15T14:51:25;2.57;;;1.40;;
21806;SDS011;11065;50.786;7.840;2022-11-15T14:53:52;3.93;;;2.03;;
21806;SDS011;11065;50.786;7.840;2022-11-15T14:56:20;3.10;;;1.57;;
21806;SDS011;11065;50.786;7.840;2022-11-15T14:58:47;3.87;;;1.50;;
21806;SDS011;11065;50.786;7.840;2022-11-15T15:01:25;2.27;;;1.40;;
21806;SDS011;11065;50.786;7.840;2022-11-15T15:03:53;2.00;;;1.30;;
21806;SDS011;11065;50.786;7.840;2022-11-15T15:06:24;3.00;;;1.20;;
21806;SDS011;11065;50.786;7.840;2022-11-15T15:08:52;2.20;;;1.50;;
21806;SDS011;11065;50.786;7.840;2022-11-15T15:11:22;2.47;;;1.50;;
21806;SDS011;11065;50.786;7.840;2022-11-15T15:13:51;3.57;;;2.03;;
21806;SDS011;11065;50.786;7.840;2022-11-15T15:16:19;5.13;;;1.80;;
21806;SDS011;11065;50.786;7.840;2022-11-15T15:18:45;4.83;;;2.67;;
21806;SDS011;11065;50.786;7.840;2022-11-15T15:21:27;4.27;;;2.53;;
21806;SDS011;11065;50.786;7.840;2022-11-15T15:24:02;4.60;;;2.40;;
21806;SDS011;11065;50.786;7.840;2022-11-15T15:26:30;7.10;;;2.57;;
21806;SDS011;11065;50.786;7.840;2022-11-15T15:29:00;8.03;;;4.40;;
21806;SDS011;11065;50.786;7.840;2022-11-15T15:31:26;6.97;;;4.13;;
21806;SDS011;11065;50.786;7.840;2022-11-15T15:33:53;6.60;;;3.50;;
21806;SDS011;11065;50.786;7.840;2022-11-15T15:36:20;5.40;;;2.13;;
21806;SDS011;11065;50.786;7.840;2022-11-15T15:38:46;5.53;;;2.40;;
21806;SDS011;11065;50.786;7.840;2022-11-15T15:41:14;4.67;;;2.90;;
21806;SDS011;11065;50.786;7.840;2022-11-15T15:43:41;3.83;;;2.13;;
21806;SDS011;11065;50.786;7.840;2022-11-15T15:46:12;4.43;;;2.40;;
21806;SDS011;11065;50.786;7.840;2022-11-15T15:48:42;3.30;;;2.00;;
21806;SDS011;11065;50.786;7.840;2022-11-15T15:51:09;3.63;;;2.10;;
21806;SDS011;11065;50.786;7.840;2022-11-15T15:53:45;2.97;;;1.90;;
21806;SDS011;11065;50.786;7.840;2022-11-15T15:56:12;2.93;;;1.83;;
21806;SDS011;11065;50.786;7.840;2022-11-15T15:58:39;3.27;;;1.70;;
21806;SDS011;11065;50.786;7.840;2022-11-15T16:01:05;3.53;;;1.97;;
21806;SDS011;11065;50.786;7.840;2022-11-15T16:03:32;2.80;;;2.10;;
21806;SDS011;11065;50.786;7.840;2022-11-15T16:05:59;2.97;;;1.60;;
21806;SDS011;11065;50.786;7.840;2022-11-15T16:08:27;3.13;;;1.70;;
21806;SDS011;11065;50.786;7.840;2022-11-15T16:11:15;2.67;;;1.70;;
21806;SDS011;11065;50.786;7.840;2022-11-15T16:13:42;2.10;;;1.70;;
21806;SDS011;11065;50.786;7.840;2022-11-15T16:16:09;3.27;;;1.60;;
21806;SDS011;11065;50.786;7.840;2022-11-15T16:18:39;3.27;;;1.50;;
21806;SDS011;11065;50.786;7.840;2022-11-15T16:21:07;2.63;;;1.53;;
21806;SDS011;11065;50.786;7.840;2022-11-15T16:23:34;3.57;;;2.07;;
21806;SDS011;11065;50.786;7.840;2022-11-15T16:26:01;2.97;;;1.73;;
21806;SDS011;11065;50.786;7.840;2022-11-15T16:28:30;2.40;;;1.70;;
21806;SDS011;11065;50.786;7.840;2022-11-15T16:31:03;5.20;;;2.63;;
21806;SDS011;11065;50.786;7.840;2022-11-15T16:33:30;3.20;;;2.20;;
21806;SDS011;11065;50.786;7.840;2022-11-15T16:35:58;4.07;;;2.20;;
21806;SDS011;11065;50.786;7.840;2022-11-15T16:38:25;4.00;;;2.40;;
21806;SDS011;11065;50.786;7.840;2022-11-15T16:40:52;4.30;;;2.60;;
21806;SDS011;11065;50.786;7.840;2022-11-15T16:43:19;4.00;;;2.17;;
21806;SDS011;11065;50.786;7.840;2022-11-15T16:45:46;5.37;;;2.60;;
21806;SDS011;11065;50.786;7.840;2022-11-15T16:48:20;3.60;;;2.33;;
21806;SDS011;11065;50.786;7.840;2022-11-15T16:50:55;3.47;;;2.40;;
21806;SDS011;11065;50.786;7.840;2022-11-15T16:53:23;2.33;;;1.50;;
21806;SDS011;11065;50.786;7.840;2022-11-15T16:55:51;2.40;;;1.50;;
21806;SDS011;11065;50.786;7.840;2022-11-15T16:58:18;2.50;;;1.63;;
21806;SDS011;11065;50.786;7.840;2022-11-15T17:00:45;4.43;;;2.97;;
21806;SDS011;11065;50.786;7.840;2022-11-15T17:03:23;4.37;;;2.60;;
21806;SDS011;11065;50.786;7.840;2022-11-15T17:05:50;2.83;;;1.83;;
21806;SDS011;11065;50.786;7.840;2022-11-15T17:08:17;3.23;;;2.00;;
21806;SDS011;11065;50.786;7.840;2022-11-15T17:10:47;3.50;;;1.57;;
21806;SDS011;11065;50.786;7.840;2022-11-15T17:13:14;3.17;;;1.80;;
21806;SDS011;11065;50.786;7.840;2022-11-15T17:15:41;3.03;;;1.53;;
21806;SDS011;11065;50.786;7.840;2022-11-15T17:18:10;3.77;;;1.73;;
21806;SDS011;11065;50.786;7.840;2022-11-15T17:20:38;5.13;;;1.80;;
21806;SDS011;11065;50.786;7.840;2022-11-15T17:23:07;3.30;;;2.00;;
21806;SDS011;11065;50.786;7.840;2022-11-15T17:25:39;2.53;;;1.57;;
21806;SDS011;11065;50.786;7.840;2022-11-15T17:28:06;6.10;;;1.50;;
21806;SDS011;11065;50.786;7.840;2022-11-15T17:30:33;2.90;;;1.53;;
21806;SDS011;11065;50.786;7.840;2022-11-15T17:33:00;2.13;;;1.10;;
21806;SDS011;11065;50.786;7.840;2022-11-15T17:35:27;3.07;;;1.60;;
21806;SDS011;11065;50.786;7.840;2022-11-15T17:37:54;2.80;;;2.00;;
21806;SDS011;11065;50.786;7.840;2022-11-15T17:40:21;4.43;;;1.97;;
21806;SDS011;11065;50.786;7.840;2022-11-15T17:42:47;5.50;;;3.00;;
21806;SDS011;11065;50.786;7.840;2022-11-15T17:45:14;6.93;;;3.80;;
21806;SDS011;11065;50.786;7.840;2022-11-15T17:47:41;3.67;;;2.10;;
21806;SDS011;11065;50.786;7.840;2022-11-15T17:50:08;4.60;;;1.90;;
21806;SDS011;11065;50.786;7.840;2022-11-15T17:52:35;2.97;;;1.60;;
21806;SDS011;11065;50.786;7.840;2022-11-15T17:55:02;4.87;;;1.90;;
21806;SDS011;11065;50.786;7.840;2022-11-15T17:57:29;5.13;;;2.27;;
21806;SDS011;11065;50.786;7.840;2022-11-15T17:59:55;3.23;;;2.20;;